Baker, Oklahoma
Current Conditions -  °F | °C
As of 9:15 PM on Wednesday 22 Oct 2014 (Local Time) from KLBL Reporting Station
Clear Clear  
Wind Chill: 61°   Ceiling: Unl
Heat Index: 61°   Visibility: 10mi
Dew Point: 54°   Wind: 13mph
Humidity: 77%   Direction: 170°S
Pressure: 30.07"   Gusts: NA
Location:  36.8748°N, 100.837°W
Report Text: KLBL 230215Z AUTO 17011KT 10SM CLR 16/12 A3007 RMK AO1
Loading
Personal Weather Stations






























Interactive Weather Map
Tropical Storm Tracking
New forecast layout! Learn more

10-Day Weather Forecast

Advertisements
Track Severe Weather on mobile